Time,TemperatureF,DewpointF,PressureIn,WindDirection,WindDirectionDegrees,WindSpeedMPH,WindSpeedGustMPH,Humidity,HourlyPrecipIn,Conditions,Clouds,dailyrainin,SoftwareType,DateUTC
2013-01-15 00:03:00,59.0,57.0,30.12,SSE,156,0.0,0.0,93,0.00,,,0.00,,2013-01-15 05:03:00,
2013-01-15 00:12:00,59.0,57.0,30.12,SSE,156,0.0,0.0,93,0.00,,,0.00,,2013-01-15 05:12:00,
2013-01-15 00:22:00,59.0,57.0,30.12,SSE,156,0.0,0.0,93,0.00,,,0.00,,2013-01-15 05:22:00,
2013-01-15 00:33:00,58.0,56.0,30.12,SSE,156,0.0,0.0,93,0.00,,,0.00,,2013-01-15 05:33:00,
2013-01-15 00:42:00,58.0,56.0,30.12,SSE,156,0.0,0.0,93,0.00,,,0.00,,2013-01-15 05:42:00,
2013-01-15 00:53:00,58.0,56.0,30.12,SSE,156,0.0,0.0,93,0.00,,,0.00,,2013-01-15 05:53:00,
2013-01-15 01:02:00,58.0,56.0,30.12,SSE,156,0.0,0.0,93,0.00,,,0.00,,2013-01-15 06:02:00,
2013-01-15 01:12:00,58.0,56.0,30.12,SSE,156,0.0,0.0,93,0.00,,,0.00,,2013-01-15 06:12:00,
2013-01-15 01:22:00,58.0,56.0,30.11,SSE,156,0.0,0.0,93,0.00,,,0.00,,2013-01-15 06:22:00,
2013-01-15 01:33:00,58.0,56.0,30.11,SSE,156,0.0,0.0,93,0.00,,,0.00,,2013-01-15 06:33:00,
2013-01-15 01:43:00,58.0,56.0,30.11,SSE,156,0.0,0.0,93,0.00,,,0.00,,2013-01-15 06:43:00,
2013-01-15 01:53:00,57.0,55.0,30.11,SSE,156,0.0,0.0,93,0.00,,,0.00,,2013-01-15 06:53:00,
2013-01-15 02:02:00,57.0,55.0,30.11,SSE,156,0.0,0.0,93,0.00,,,0.00,,2013-01-15 07:02:00,
2013-01-15 02:12:00,57.0,55.0,30.11,SSE,156,0.0,0.0,93,0.00,,,0.00,,2013-01-15 07:12:00,
2013-01-15 02:22:00,57.0,55.0,30.10,SSE,156,0.0,0.0,93,0.00,,,0.00,,2013-01-15 07:22:00,
2013-01-15 02:33:00,57.0,55.0,30.10,SSE,156,0.0,0.0,93,0.00,,,0.00,,2013-01-15 07:33:00,
2013-01-15 02:42:00,57.0,55.0,30.10,SSE,156,0.0,0.0,93,0.00,,,0.00,,2013-01-15 07:42:00,
2013-01-15 02:53:00,56.0,54.0,30.10,SSE,156,0.0,0.0,94,0.00,,,0.00,,2013-01-15 07:53:00,
2013-01-15 03:02:00,56.0,54.0,30.10,SSE,156,0.0,0.0,94,0.00,,,0.00,,2013-01-15 08:02:00,
2013-01-15 03:12:00,56.0,54.0,30.10,SSE,156,0.0,0.0,94,0.00,,,0.00,,2013-01-15 08:12:00,
2013-01-15 03:22:00,56.0,54.0,30.10,SSE,156,0.0,0.0,94,0.00,,,0.00,,2013-01-15 08:22:00,
2013-01-15 03:33:00,56.0,54.0,30.10,SSE,156,0.0,0.0,94,0.00,,,0.00,,2013-01-15 08:33:00,
2013-01-15 03:42:00,56.0,54.0,30.10,SSE,156,0.0,0.0,94,0.00,,,0.00,,2013-01-15 08:42:00,
2013-01-15 03:53:00,56.0,54.0,30.10,SSE,156,0.0,0.0,94,0.00,,,0.00,,2013-01-15 08:53:00,
2013-01-15 04:02:00,56.0,54.0,30.10,SSE,156,0.0,0.0,94,0.00,,,0.00,,2013-01-15 09:02:00,
2013-01-15 09:03:00,64.0,63.0,30.12,East,86,0.0,0.0,96,0.01,,,0.01,,2013-01-15 14:03:00,
2013-01-15 09:13:00,64.0,63.0,30.12,East,86,0.0,0.0,96,0.01,,,0.01,,2013-01-15 14:13:00,
2013-01-15 09:23:00,66.0,65.0,30.12,East,82,3.0,3.0,96,0.00,,,0.01,,2013-01-15 14:23:00,
2013-01-15 09:33:00,68.0,66.0,30.12,ENE,75,0.0,3.0,94,0.00,,,0.01,,2013-01-15 14:33:00,
2013-01-15 09:43:00,68.0,66.0,30.12,ENE,75,0.0,3.0,94,0.00,,,0.01,,2013-01-15 14:43:00,
2013-01-15 09:54:00,71.0,67.0,30.12,SE,142,0.0,2.0,88,0.00,,,0.01,,2013-01-15 14:54:00,
2013-01-15 10:03:00,73.0,68.0,30.12,NE,40,0.0,3.0,83,0.00,,,0.01,,2013-01-15 15:03:00,
2013-01-15 10:12:00,73.0,68.0,30.12,NE,40,0.0,3.0,83,0.00,,,0.01,,2013-01-15 15:12:00,
2013-01-15 10:23:00,75.0,68.0,30.12,NE,48,0.0,4.0,80,0.00,,,0.01,,2013-01-15 15:23:00,
2013-01-15 10:33:00,77.0,70.0,30.11,NE,47,0.0,4.0,78,0.00,,,0.01,,2013-01-15 15:33:00,
2013-01-15 10:43:00,77.0,70.0,30.11,NE,47,0.0,4.0,78,0.00,,,0.01,,2013-01-15 15:43:00,
2013-01-15 10:53:00,78.0,69.0,30.11,ENE,62,0.0,4.0,75,0.00,,,0.01,,2013-01-15 15:53:00,
2013-01-15 11:03:00,79.0,69.0,30.10,ENE,63,1.0,5.0,72,0.00,,,0.01,,2013-01-15 16:03:00,
2013-01-15 11:12:00,79.0,69.0,30.10,ENE,63,1.0,5.0,72,0.00,,,0.01,,2013-01-15 16:12:00,
2013-01-15 11:23:00,80.0,69.0,30.10,ESE,116,1.0,5.0,69,0.00,,,0.01,,2013-01-15 16:23:00,
2013-01-15 11:33:00,81.0,67.0,30.09,ESE,105,4.0,5.0,63,0.00,,,0.01,,2013-01-15 16:33:00,
2013-01-15 11:43:00,81.0,67.0,30.09,ESE,105,4.0,5.0,63,0.00,,,0.01,,2013-01-15 16:43:00,
2013-01-15 11:53:00,81.0,66.0,30.08,SW,224,3.0,5.0,61,0.00,,,0.01,,2013-01-15 16:53:00,
2013-01-15 12:04:00,80.0,66.0,30.08,SE,134,2.0,8.0,63,0.00,,,0.01,,2013-01-15 17:04:00,
2013-01-15 12:12:00,80.0,66.0,30.08,SE,134,2.0,8.0,63,0.00,,,0.01,,2013-01-15 17:12:00,
2013-01-15 12:23:00,82.0,66.0,30.07,East,89,3.0,4.0,59,0.00,,,0.01,,2013-01-15 17:23:00,
2013-01-15 12:33:00,81.0,67.0,30.07,SSE,167,1.0,4.0,62,0.00,,,0.01,,2013-01-15 17:33:00,
2013-01-15 12:42:00,81.0,67.0,30.07,SSE,167,1.0,4.0,62,0.00,,,0.01,,2013-01-15 17:42:00,
2013-01-15 12:53:00,80.0,67.0,30.06,ENE,74,1.0,3.0,64,0.00,,,0.01,,2013-01-15 17:53:00,
2013-01-15 13:03:00,80.0,66.0,30.06,NE,38,0.0,3.0,63,0.00,,,0.01,,2013-01-15 18:03:00,
2013-01-15 13:13:00,80.0,66.0,30.06,NE,38,0.0,3.0,63,0.00,,,0.01,,2013-01-15 18:13:00,
2013-01-15 13:23:00,80.0,67.0,30.05,SE,140,0.0,1.0,65,0.00,,,0.01,,2013-01-15 18:23:00,
2013-01-15 13:33:00,82.0,67.0,30.05,SE,145,0.0,2.0,60,0.00,,,0.01,,2013-01-15 18:33:00,
2013-01-15 13:43:00,82.0,67.0,30.05,SE,145,0.0,2.0,60,0.00,,,0.01,,2013-01-15 18:43:00,
2013-01-15 13:53:00,81.0,66.0,30.04,SSE,160,0.0,2.0,61,0.00,,,0.01,,2013-01-15 18:53:00,
2013-01-15 14:03:00,81.0,67.0,30.04,SSW,196,0.0,3.0,62,0.00,,,0.01,,2013-01-15 19:03:00,
2013-01-15 14:12:00,81.0,67.0,30.04,SSW,196,0.0,3.0,62,0.00,,,0.01,,2013-01-15 19:12:00,
2013-01-15 14:23:00,82.0,66.0,30.04,ENE,65,0.0,3.0,59,0.00,,,0.01,,2013-01-15 19:23:00,
2013-01-15 14:33:00,82.0,66.0,30.03,SSE,167,0.0,3.0,59,0.00,,,0.01,,2013-01-15 19:33:00,
2013-01-15 14:42:00,82.0,66.0,30.03,SSE,167,0.0,3.0,59,0.00,,,0.01,,2013-01-15 19:42:00,
2013-01-15 14:53:00,82.0,66.0,30.03,SSE,158,0.0,4.0,59,0.00,,,0.01,,2013-01-15 19:53:00,
2013-01-15 15:03:00,81.0,67.0,30.03,NE,38,0.0,5.0,62,0.00,,,0.01,,2013-01-15 20:03:00,
2013-01-15 15:12:00,81.0,67.0,30.03,NE,38,0.0,5.0,62,0.00,,,0.01,,2013-01-15 20:12:00,
2013-01-15 15:23:00,80.0,66.0,30.03,SE,142,0.0,1.0,63,0.00,,,0.01,,2013-01-15 20:23:00,
2013-01-15 15:33:00,81.0,67.0,30.03,East,83,0.0,3.0,62,0.00,,,0.01,,2013-01-15 20:33:00,
2013-01-15 15:43:00,81.0,67.0,30.03,East,83,0.0,3.0,62,0.00,,,0.01,,2013-01-15 20:43:00,
2013-01-15 15:53:00,83.0,65.0,30.02,SE,128,2.0,4.0,55,0.00,,,0.01,,2013-01-15 20:53:00,
2013-01-15 16:03:00,82.0,66.0,30.02,SSE,148,0.0,4.0,58,0.00,,,0.01,,2013-01-15 21:03:00,
2013-01-15 16:13:00,82.0,66.0,30.02,SSE,148,0.0,4.0,58,0.00,,,0.01,,2013-01-15 21:13:00,
2013-01-15 16:23:00,82.0,66.0,30.03,SSW,207,0.0,2.0,58,0.00,,,0.01,,2013-01-15 21:23:00,
2013-01-15 16:33:00,82.0,67.0,30.03,SE,142,0.0,4.0,61,0.00,,,0.01,,2013-01-15 21:33:00,
2013-01-15 16:43:00,82.0,67.0,30.03,SE,142,0.0,4.0,61,0.00,,,0.01,,2013-01-15 21:43:00,
2013-01-15 16:53:00,80.0,67.0,30.04,ENE,59,0.0,1.0,65,0.00,,,0.01,,2013-01-15 21:53:00,
2013-01-15 17:03:00,80.0,68.0,30.04,ENE,59,0.0,1.0,67,0.00,,,0.01,,2013-01-15 22:03:00,
2013-01-15 17:12:00,80.0,68.0,30.04,ENE,59,0.0,1.0,67,0.00,,,0.01,,2013-01-15 22:12:00,
2013-01-15 17:23:00,79.0,68.0,30.04,ENE,59,0.0,0.0,68,0.00,,,0.01,,2013-01-15 22:23:00,
2013-01-15 17:33:00,79.0,68.0,30.04,ENE,59,0.0,0.0,68,0.00,,,0.01,,2013-01-15 22:33:00,
2013-01-15 17:43:00,79.0,68.0,30.04,ENE,59,0.0,0.0,68,0.00,,,0.01,,2013-01-15 22:43:00,
2013-01-15 17:53:00,78.0,68.0,30.05,ENE,59,0.0,0.0,71,0.00,,,0.01,,2013-01-15 22:53:00,
2013-01-15 18:02:00,78.0,68.0,30.05,ENE,59,0.0,0.0,72,0.00,,,0.01,,2013-01-15 23:02:00,
2013-01-15 18:13:00,78.0,68.0,30.05,ENE,59,0.0,0.0,72,0.00,,,0.01,,2013-01-15 23:13:00,
2013-01-15 18:23:00,76.0,67.0,30.05,ENE,59,0.0,0.0,75,0.00,,,0.01,,2013-01-15 23:23:00,
2013-01-15 18:33:00,76.0,67.0,30.05,ENE,59,0.0,1.0,74,0.00,,,0.01,,2013-01-15 23:33:00,
2013-01-15 18:43:00,76.0,67.0,30.05,ENE,59,0.0,1.0,74,0.00,,,0.01,,2013-01-15 23:43:00,
2013-01-15 18:53:00,76.0,67.0,30.05,ENE,59,0.0,0.0,74,0.00,,,0.01,,2013-01-15 23:53:00,
2013-01-15 19:03:00,75.0,67.0,30.05,ENE,59,0.0,0.0,77,0.00,,,0.01,,2013-01-16 00:03:00,
2013-01-15 19:13:00,75.0,67.0,30.05,ENE,59,0.0,0.0,77,0.00,,,0.01,,2013-01-16 00:13:00,
2013-01-15 19:22:00,75.0,67.0,30.05,ENE,59,0.0,0.0,77,0.00,,,0.01,,2013-01-16 00:22:00,
2013-01-15 19:33:00,74.0,67.0,30.05,ENE,59,0.0,0.0,78,0.00,,,0.01,,2013-01-16 00:33:00,
2013-01-15 19:43:00,74.0,67.0,30.05,ENE,59,0.0,0.0,78,0.00,,,0.01,,2013-01-16 00:43:00,
2013-01-15 19:53:00,74.0,67.0,30.05,ENE,59,0.0,0.0,79,0.00,,,0.01,,2013-01-16 00:53:00,
2013-01-15 20:03:00,73.0,66.0,30.05,ENE,59,0.0,0.0,79,0.00,,,0.01,,2013-01-16 01:03:00,
2013-01-15 20:12:00,73.0,66.0,30.05,ENE,59,0.0,0.0,79,0.00,,,0.01,,2013-01-16 01:12:00,
2013-01-15 20:22:00,73.0,67.0,30.05,ENE,59,0.0,0.0,81,0.00,,,0.01,,2013-01-16 01:22:00,
2013-01-15 20:33:00,73.0,67.0,30.05,ENE,59,0.0,0.0,81,0.00,,,0.01,,2013-01-16 01:33:00,
2013-01-15 20:43:00,73.0,67.0,30.05,ENE,59,0.0,0.0,81,0.00,,,0.01,,2013-01-16 01:43:00,
2013-01-15 20:53:00,72.0,66.0,30.04,ENE,59,0.0,0.0,82,0.00,,,0.01,,2013-01-16 01:53:00,
2013-01-15 21:03:00,72.0,66.0,30.04,ENE,59,0.0,0.0,82,0.00,,,0.01,,2013-01-16 02:03:00,
2013-01-15 21:12:00,72.0,66.0,30.04,ENE,59,0.0,0.0,82,0.00,,,0.01,,2013-01-16 02:12:00,
2013-01-15 21:22:00,72.0,66.0,30.04,SE,132,0.0,1.0,81,0.00,,,0.01,,2013-01-16 02:22:00,
2013-01-15 21:32:00,72.0,66.0,30.04,SE,132,1.0,1.0,81,0.00,,,0.01,,2013-01-16 02:32:00,
2013-01-15 21:43:00,72.0,66.0,30.04,SE,132,1.0,1.0,81,0.00,,,0.01,,2013-01-16 02:43:00,
2013-01-15 21:53:00,72.0,66.0,30.04,SSE,147,0.0,2.0,81,0.00,,,0.01,,2013-01-16 02:53:00,
2013-01-15 22:03:00,72.0,66.0,30.04,SSE,148,0.0,2.0,82,0.00,,,0.01,,2013-01-16 03:03:00,
2013-01-15 22:12:00,70.0,65.0,30.04,SSE,148,0.0,0.0,83,0.00,,,0.01,,2013-01-16 03:12:00,
2013-01-15 22:22:00,70.0,65.0,30.04,SSE,148,0.0,0.0,83,0.00,,,0.01,,2013-01-16 03:22:00,
2013-01-15 22:33:00,70.0,65.0,30.04,SSE,148,0.0,0.0,84,0.00,,,0.01,,2013-01-16 03:33:00,
2013-01-15 22:43:00,70.0,65.0,30.04,SSE,148,0.0,0.0,84,0.00,,,0.01,,2013-01-16 03:43:00,
2013-01-15 22:53:00,68.0,64.0,30.03,SSE,148,0.0,0.0,86,0.00,,,0.01,,2013-01-16 03:53:00,
2013-01-15 23:02:00,67.0,63.0,30.03,SSE,148,0.0,0.0,87,0.00,,,0.01,,2013-01-16 04:02:00,
2013-01-15 23:12:00,67.0,63.0,30.03,SSE,148,0.0,0.0,87,0.00,,,0.01,,2013-01-16 04:12:00,
2013-01-15 23:22:00,67.0,63.0,30.03,SSE,148,0.0,0.0,88,0.00,,,0.01,,2013-01-16 04:22:00,
2013-01-15 23:33:00,66.0,63.0,30.04,SSE,148,0.0,0.0,89,0.00,,,0.01,,2013-01-16 04:33:00,
2013-01-15 23:42:00,66.0,63.0,30.04,SSE,148,0.0,0.0,89,0.00,,,0.01,,2013-01-16 04:42:00,
2013-01-15 23:52:00,65.0,62.0,30.04,SSE,148,0.0,0.0,90,0.00,,,0.01,,2013-01-16 04:52:00,